sensor_id;sensor_type;location;lat;lon;timestamp;temperature;humidity
2130;DHT22;1071;52.544;13.374;2023-05-14T00:00:00;17.00;75.80
2130;DHT22;1071;52.544;13.374;2023-05-14T00:02:28;17.00;75.70
2130;DHT22;1071;52.544;13.374;2023-05-14T00:04:55;17.00;75.80
2130;DHT22;1071;52.544;13.374;2023-05-14T00:07:24;17.00;75.60
2130;DHT22;1071;52.544;13.374;2023-05-14T00:09:58;17.00;75.90
2130;DHT22;1071;52.544;13.374;2023-05-14T00:12:26;16.90;75.70
2130;DHT22;1071;52.544;13.374;2023-05-14T00:14:53;16.90;75.60
2130;DHT22;1071;52.544;13.374;2023-05-14T00:17:21;16.90;75.70
2130;DHT22;1071;52.544;13.374;2023-05-14T00:19:48;16.90;75.90
2130;DHT22;1071;52.544;13.374;2023-05-14T00:22:14;16.90;76.00
2130;DHT22;1071;52.544;13.374;2023-05-14T00:24:41;16.90;76.20
2130;DHT22;1071;52.544;13.374;2023-05-14T00:27:10;16.90;76.30
2130;DHT22;1071;52.544;13.374;2023-05-14T00:29:37;16.90;76.30
2130;DHT22;1071;52.544;13.374;2023-05-14T00:32:05;16.90;76.40
2130;DHT22;1071;52.544;13.374;2023-05-14T00:34:32;16.90;76.60
2130;DHT22;1071;52.544;13.374;2023-05-14T00:36:59;16.80;77.50
2130;DHT22;1071;52.544;13.374;2023-05-14T00:39:27;16.80;76.90
2130;DHT22;1071;52.544;13.374;2023-05-14T00:41:54;16.80;77.00
2130;DHT22;1071;52.544;13.374;2023-05-14T00:44:22;16.80;77.10
2130;DHT22;1071;52.544;13.374;2023-05-14T00:46:50;16.80;77.30
2130;DHT22;1071;52.544;13.374;2023-05-14T00:49:17;16.80;77.40
2130;DHT22;1071;52.544;13.374;2023-05-14T00:51:44;16.70;77.60
2130;DHT22;1071;52.544;13.374;2023-05-14T00:54:12;16.70;78.00
2130;DHT22;1071;52.544;13.374;2023-05-14T00:56:39;16.70;78.00
2130;DHT22;1071;52.544;13.374;2023-05-14T00:59:07;16.70;78.00
2130;DHT22;1071;52.544;13.374;2023-05-14T01:01:35;16.70;78.00
2130;DHT22;1071;52.544;13.374;2023-05-14T01:04:03;16.60;77.90
2130;DHT22;1071;52.544;13.374;2023-05-14T01:06:37;16.70;78.00
2130;DHT22;1071;52.544;13.374;2023-05-14T01:09:09;16.60;77.90
2130;DHT22;1071;52.544;13.374;2023-05-14T01:11:42;16.60;78.30
2130;DHT22;1071;52.544;13.374;2023-05-14T01:14:20;16.60;78.40
2130;DHT22;1071;52.544;13.374;2023-05-14T01:16:52;16.60;78.50
2130;DHT22;1071;52.544;13.374;2023-05-14T01:19:34;16.50;78.60
2130;DHT22;1071;52.544;13.374;2023-05-14T01:22:03;16.50;78.40
2130;DHT22;1071;52.544;13.374;2023-05-14T01:24:30;16.50;78.50
2130;DHT22;1071;52.544;13.374;2023-05-14T01:27:02;16.50;78.60
2130;DHT22;1071;52.544;13.374;2023-05-14T01:29:33;16.50;78.70
2130;DHT22;1071;52.544;13.374;2023-05-14T01:32:05;16.50;78.70
2130;DHT22;1071;52.544;13.374;2023-05-14T01:34:34;16.50;78.90
2130;DHT22;1071;52.544;13.374;2023-05-14T01:37:04;16.40;78.90
2130;DHT22;1071;52.544;13.374;2023-05-14T01:39:33;16.40;79.00
2130;DHT22;1071;52.544;13.374;2023-05-14T01:42:03;16.40;78.90
2130;DHT22;1071;52.544;13.374;2023-05-14T01:44:31;16.40;79.70
2130;DHT22;1071;52.544;13.374;2023-05-14T01:46:58;16.30;78.90
2130;DHT22;1071;52.544;13.374;2023-05-14T01:49:31;16.30;79.10
2130;DHT22;1071;52.544;13.374;2023-05-14T01:52:07;16.30;79.40
2130;DHT22;1071;52.544;13.374;2023-05-14T01:54:34;16.30;79.30
2130;DHT22;1071;52.544;13.374;2023-05-14T01:57:01;16.30;79.10
2130;DHT22;1071;52.544;13.374;2023-05-14T01:59:28;16.30;79.10
2130;DHT22;1071;52.544;13.374;2023-05-14T02:01:55;16.30;79.00
2130;DHT22;1071;52.544;13.374;2023-05-14T02:04:22;16.30;78.90
2130;DHT22;1071;52.544;13.374;2023-05-14T02:06:49;16.30;78.80
2130;DHT22;1071;52.544;13.374;2023-05-14T02:09:17;16.30;78.60
2130;DHT22;1071;52.544;13.374;2023-05-14T02:11:44;16.20;78.50
2130;DHT22;1071;52.544;13.374;2023-05-14T02:14:11;16.20;78.10
2130;DHT22;1071;52.544;13.374;2023-05-14T02:16:39;16.20;77.70
2130;DHT22;1071;52.544;13.374;2023-05-14T02:19:06;16.20;77.70
2130;DHT22;1071;52.544;13.374;2023-05-14T02:21:54;16.20;78.00
2130;DHT22;1071;52.544;13.374;2023-05-14T02:24:30;16.20;77.60
2130;DHT22;1071;52.544;13.374;2023-05-14T02:27:05;16.20;77.30
2130;DHT22;1071;52.544;13.374;2023-05-14T02:29:32;16.20;77.30
2130;DHT22;1071;52.544;13.374;2023-05-14T02:31:59;16.20;77.40
2130;DHT22;1071;52.544;13.374;2023-05-14T02:34:26;16.20;77.30
2130;DHT22;1071;52.544;13.374;2023-05-14T02:36:53;16.20;77.00
2130;DHT22;1071;52.544;13.374;2023-05-14T02:39:20;16.20;76.80
2130;DHT22;1071;52.544;13.374;2023-05-14T02:41:48;16.20;76.90
2130;DHT22;1071;52.544;13.374;2023-05-14T02:44:15;16.20;77.10
2130;DHT22;1071;52.544;13.374;2023-05-14T02:46:42;16.20;77.00
2130;DHT22;1071;52.544;13.374;2023-05-14T02:49:09;16.20;77.10
2130;DHT22;1071;52.544;13.374;2023-05-14T02:51:36;16.20;77.10
2130;DHT22;1071;52.544;13.374;2023-05-14T02:54:03;16.20;77.00
2130;DHT22;1071;52.544;13.374;2023-05-14T02:56:30;16.20;77.00
2130;DHT22;1071;52.544;13.374;2023-05-14T02:58:59;16.20;76.90
2130;DHT22;1071;52.544;13.374;2023-05-14T03:01:26;16.20;76.70
2130;DHT22;1071;52.544;13.374;2023-05-14T03:03:53;16.20;76.60
2130;DHT22;1071;52.544;13.374;2023-05-14T03:06:20;16.20;76.70
2130;DHT22;1071;52.544;13.374;2023-05-14T03:08:47;16.20;76.70
2130;DHT22;1071;52.544;13.374;2023-05-14T03:11:17;16.20;76.50
2130;DHT22;1071;52.544;13.374;2023-05-14T03:13:46;16.30;76.40
2130;DHT22;1071;52.544;13.374;2023-05-14T03:16:14;16.30;76.40
2130;DHT22;1071;52.544;13.374;2023-05-14T03:18:41;16.30;76.10
2130;DHT22;1071;52.544;13.374;2023-05-14T03:21:08;16.30;76.00
2130;DHT22;1071;52.544;13.374;2023-05-14T03:23:35;16.30;76.00
2130;DHT22;1071;52.544;13.374;2023-05-14T03:26:02;16.30;76.00
2130;DHT22;1071;52.544;13.374;2023-05-14T03:28:29;16.30;75.90
2130;DHT22;1071;52.544;13.374;2023-05-14T03:30:56;16.30;75.80
2130;DHT22;1071;52.544;13.374;2023-05-14T03:33:25;16.30;75.80
2130;DHT22;1071;52.544;13.374;2023-05-14T03:35:58;16.30;75.70
2130;DHT22;1071;52.544;13.374;2023-05-14T03:38:34;16.30;75.60
2130;DHT22;1071;52.544;13.374;2023-05-14T03:41:01;16.30;75.30
2130;DHT22;1071;52.544;13.374;2023-05-14T03:43:28;16.30;75.20
2130;DHT22;1071;52.544;13.374;2023-05-14T03:45:55;16.30;75.20
2130;DHT22;1071;52.544;13.374;2023-05-14T03:48:22;16.30;75.00
2130;DHT22;1071;52.544;13.374;2023-05-14T03:50:50;16.40;75.10
2130;DHT22;1071;52.544;13.374;2023-05-14T03:53:17;16.40;75.10
2130;DHT22;1071;52.544;13.374;2023-05-14T03:55:44;16.40;75.10
2130;DHT22;1071;52.544;13.374;2023-05-14T03:58:11;16.40;75.00
2130;DHT22;1071;52.544;13.374;2023-05-14T04:00:40;16.40;74.90
2130;DHT22;1071;52.544;13.374;2023-05-14T04:03:07;16.40;74.70
2130;DHT22;1071;52.544;13.374;2023-05-14T04:05:34;16.40;74.60
2130;DHT22;1071;52.544;13.374;2023-05-14T04:08:02;16.30;74.30
2130;DHT22;1071;52.544;13.374;2023-05-14T04:10:30;16.40;74.20
2130;DHT22;1071;52.544;13.374;2023-05-14T04:12:57;16.40;74.10
2130;DHT22;1071;52.544;13.374;2023-05-14T04:15:24;16.40;74.20
2130;DHT22;1071;52.544;13.374;2023-05-14T04:17:51;16.40;74.00
2130;DHT22;1071;52.544;13.374;2023-05-14T04:20:18;16.40;74.00
2130;DHT22;1071;52.544;13.374;2023-05-14T04:22:45;16.50;73.60
2130;DHT22;1071;52.544;13.374;2023-05-14T04:25:13;16.50;73.40
2130;DHT22;1071;52.544;13.374;2023-05-14T04:27:40;16.50;73.00
2130;DHT22;1071;52.544;13.374;2023-05-14T04:30:08;16.50;73.10
2130;DHT22;1071;52.544;13.374;2023-05-14T04:32:35;16.50;73.30
2130;DHT22;1071;52.544;13.374;2023-05-14T04:35:04;16.50;73.40
2130;DHT22;1071;52.544;13.374;2023-05-14T04:37:31;16.50;73.20
2130;DHT22;1071;52.544;13.374;2023-05-14T04:39:58;16.50;73.30
2130;DHT22;1071;52.544;13.374;2023-05-14T04:42:27;16.50;73.50
2130;DHT22;1071;52.544;13.374;2023-05-14T04:44:54;16.50;73.60
2130;DHT22;1071;52.544;13.374;2023-05-14T04:47:21;16.50;73.50
2130;DHT22;1071;52.544;13.374;2023-05-14T04:49:48;16.50;73.30
2130;DHT22;1071;52.544;13.374;2023-05-14T04:52:15;16.60;73.40
2130;DHT22;1071;52.544;13.374;2023-05-14T04:54:45;16.60;73.40
2130;DHT22;1071;52.544;13.374;2023-05-14T04:57:13;16.60;73.30
2130;DHT22;1071;52.544;13.374;2023-05-14T04:59:42;16.60;73.40
2130;DHT22;1071;52.544;13.374;2023-05-14T05:02:08;16.60;73.40
2130;DHT22;1071;52.544;13.374;2023-05-14T05:04:35;16.60;73.50
2130;DHT22;1071;52.544;13.374;2023-05-14T05:07:08;16.60;73.50
2130;DHT22;1071;52.544;13.374;2023-05-14T05:09:35;16.70;73.60
2130;DHT22;1071;52.544;13.374;2023-05-14T05:12:02;16.70;73.60
2130;DHT22;1071;52.544;13.374;2023-05-14T05:14:29;16.70;73.50
2130;DHT22;1071;52.544;13.374;2023-05-14T05:16:57;16.80;73.60
2130;DHT22;1071;52.544;13.374;2023-05-14T05:19:24;16.90;73.80
2130;DHT22;1071;52.544;13.374;2023-05-14T05:21:51;16.90;74.10
2130;DHT22;1071;52.544;13.374;2023-05-14T05:24:18;16.90;74.10
2130;DHT22;1071;52.544;13.374;2023-05-14T05:26:45;17.00;74.70
2130;DHT22;1071;52.544;13.374;2023-05-14T05:29:12;17.00;74.90
2130;DHT22;1071;52.544;13.374;2023-05-14T05:31:39;17.10;73.30
2130;DHT22;1071;52.544;13.374;2023-05-14T05:34:10;17.10;72.60
2130;DHT22;1071;52.544;13.374;2023-05-14T05:36:37;17.10;70.00
2130;DHT22;1071;52.544;13.374;2023-05-14T05:39:04;17.20;68.60
2130;DHT22;1071;52.544;13.374;2023-05-14T05:41:34;17.30;67.30
2130;DHT22;1071;52.544;13.374;2023-05-14T05:44:07;17.40;67.30
2130;DHT22;1071;52.544;13.374;2023-05-14T05:46:34;17.50;67.30
2130;DHT22;1071;52.544;13.374;2023-05-14T05:49:02;17.60;66.60
2130;DHT22;1071;52.544;13.374;2023-05-14T05:51:32;17.70;66.70
2130;DHT22;1071;52.544;13.374;2023-05-14T05:53:59;17.70;66.70
2130;DHT22;1071;52.544;13.374;2023-05-14T05:56:26;17.80;67.60
2130;DHT22;1071;52.544;13.374;2023-05-14T05:58:53;17.90;68.50
2130;DHT22;1071;52.544;13.374;2023-05-14T06:01:20;17.90;68.20
2130;DHT22;1071;52.544;13.374;2023-05-14T06:03:47;17.90;66.30
2130;DHT22;1071;52.544;13.374;2023-05-14T06:06:14;18.00;65.40
2130;DHT22;1071;52.544;13.374;2023-05-14T06:08:45;18.10;65.30
2130;DHT22;1071;52.544;13.374;2023-05-14T06:11:14;18.20;66.20
2130;DHT22;1071;52.544;13.374;2023-05-14T06:13:42;18.30;67.00
2130;DHT22;1071;52.544;13.374;2023-05-14T06:16:09;18.30;65.00
2130;DHT22;1071;52.544;13.374;2023-05-14T06:18:36;18.40;65.30
2130;DHT22;1071;52.544;13.374;2023-05-14T06:21:03;18.50;64.80
2130;DHT22;1071;52.544;13.374;2023-05-14T06:23:38;18.60;64.50
2130;DHT22;1071;52.544;13.374;2023-05-14T06:26:07;18.70;64.30
2130;DHT22;1071;52.544;13.374;2023-05-14T06:28:34;18.80;65.50
2130;DHT22;1071;52.544;13.374;2023-05-14T06:31:01;18.80;65.40
2130;DHT22;1071;52.544;13.374;2023-05-14T06:33:28;18.90;66.30
2130;DHT22;1071;52.544;13.374;2023-05-14T06:35:55;19.00;66.40
2130;DHT22;1071;52.544;13.374;2023-05-14T06:38:22;19.00;65.90
2130;DHT22;1071;52.544;13.374;2023-05-14T06:40:54;19.00;64.30
2130;DHT22;1071;52.544;13.374;2023-05-14T06:43:22;19.00;63.50
2130;DHT22;1071;52.544;13.374;2023-05-14T06:45:53;19.10;63.80
2130;DHT22;1071;52.544;13.374;2023-05-14T06:48:20;19.10;63.30
2130;DHT22;1071;52.544;13.374;2023-05-14T06:50:48;19.00;61.70
2130;DHT22;1071;52.544;13.374;2023-05-14T06:53:15;18.90;61.90
2130;DHT22;1071;52.544;13.374;2023-05-14T06:55:42;18.90;61.80
2130;DHT22;1071;52.544;13.374;2023-05-14T06:58:09;19.00;62.10
2130;DHT22;1071;52.544;13.374;2023-05-14T07:00:38;19.00;61.90
2130;DHT22;1071;52.544;13.374;2023-05-14T07:03:05;19.00;62.20
2130;DHT22;1071;52.544;13.374;2023-05-14T07:05:32;19.00;62.30
2130;DHT22;1071;52.544;13.374;2023-05-14T07:07:59;19.10;61.90
2130;DHT22;1071;52.544;13.374;2023-05-14T07:10:27;19.10;61.80
2130;DHT22;1071;52.544;13.374;2023-05-14T07:12:55;19.10;61.70
2130;DHT22;1071;52.544;13.374;2023-05-14T07:15:25;19.20;62.30
2130;DHT22;1071;52.544;13.374;2023-05-14T07:18:04;19.10;62.10
2130;DHT22;1071;52.544;13.374;2023-05-14T07:20:31;19.20;62.20
2130;DHT22;1071;52.544;13.374;2023-05-14T07:22:58;19.30;62.10
2130;DHT22;1071;52.544;13.374;2023-05-14T07:25:25;19.30;62.00
2130;DHT22;1071;52.544;13.374;2023-05-14T07:27:52;19.30;61.80
2130;DHT22;1071;52.544;13.374;2023-05-14T07:30:20;19.30;61.80
2130;DHT22;1071;52.544;13.374;2023-05-14T07:32:47;19.30;61.90
2130;DHT22;1071;52.544;13.374;2023-05-14T07:35:18;19.30;61.50
2130;DHT22;1071;52.544;13.374;2023-05-14T07:37:45;19.20;61.80
2130;DHT22;1071;52.544;13.374;2023-05-14T07:40:12;19.30;61.90
2130;DHT22;1071;52.544;13.374;2023-05-14T07:42:39;19.40;62.00
2130;DHT22;1071;52.544;13.374;2023-05-14T07:45:07;19.30;61.60
2130;DHT22;1071;52.544;13.374;2023-05-14T07:47:35;19.40;61.80
2130;DHT22;1071;52.544;13.374;2023-05-14T07:50:02;19.60;62.20
2130;DHT22;1071;52.544;13.374;2023-05-14T07:52:30;19.70;62.60
2130;DHT22;1071;52.544;13.374;2023-05-14T07:54:58;19.80;62.40
2130;DHT22;1071;52.544;13.374;2023-05-14T07:57:26;19.90;61.40
2130;DHT22;1071;52.544;13.374;2023-05-14T07:59:53;20.00;61.10
2130;DHT22;1071;52.544;13.374;2023-05-14T08:02:20;20.10;61.00
2130;DHT22;1071;52.544;13.374;2023-05-14T08:04:47;20.20;60.60
2130;DHT22;1071;52.544;13.374;2023-05-14T08:07:13;20.30;59.70
2130;DHT22;1071;52.544;13.374;2023-05-14T08:09:42;20.40;59.80
2130;DHT22;1071;52.544;13.374;2023-05-14T08:12:09;20.50;59.60
2130;DHT22;1071;52.544;13.374;2023-05-14T08:14:36;20.50;59.20
2130;DHT22;1071;52.544;13.374;2023-05-14T08:17:03;20.60;59.10
2130;DHT22;1071;52.544;13.374;2023-05-14T08:19:31;20.70;58.90
2130;DHT22;1071;52.544;13.374;2023-05-14T08:21:58;20.80;59.10
2130;DHT22;1071;52.544;13.374;2023-05-14T08:24:25;20.90;58.70
2130;DHT22;1071;52.544;13.374;2023-05-14T08:26:54;20.90;58.70
2130;DHT22;1071;52.544;13.374;2023-05-14T08:29:21;21.00;58.70
2130;DHT22;1071;52.544;13.374;2023-05-14T08:31:48;21.00;58.50
2130;DHT22;1071;52.544;13.374;2023-05-14T08:34:15;21.10;58.60
2130;DHT22;1071;52.544;13.374;2023-05-14T08:36:42;21.20;58.50
2130;DHT22;1071;52.544;13.374;2023-05-14T08:39:09;21.10;58.30
2130;DHT22;1071;52.544;13.374;2023-05-14T08:41:37;21.20;58.40
2130;DHT22;1071;52.544;13.374;2023-05-14T08:44:11;21.20;58.20
2130;DHT22;1071;52.544;13.374;2023-05-14T08:46:38;21.30;58.10
2130;DHT22;1071;52.544;13.374;2023-05-14T08:49:14;21.40;57.60
2130;DHT22;1071;52.544;13.374;2023-05-14T08:51:42;21.40;57.70
2130;DHT22;1071;52.544;13.374;2023-05-14T08:54:12;21.50;57.70
2130;DHT22;1071;52.544;13.374;2023-05-14T08:56:42;21.60;57.70
2130;DHT22;1071;52.544;13.374;2023-05-14T08:59:11;21.70;57.70
2130;DHT22;1071;52.544;13.374;2023-05-14T09:01:45;21.70;57.40
2130;DHT22;1071;52.544;13.374;2023-05-14T09:04:14;21.70;57.10
2130;DHT22;1071;52.544;13.374;2023-05-14T09:06:42;21.70;56.90
2130;DHT22;1071;52.544;13.374;2023-05-14T09:09:09;21.80;57.10
2130;DHT22;1071;52.544;13.374;2023-05-14T09:11:40;21.80;56.80
2130;DHT22;1071;52.544;13.374;2023-05-14T09:14:07;21.90;56.80
2130;DHT22;1071;52.544;13.374;2023-05-14T09:16:36;21.90;56.50
2130;DHT22;1071;52.544;13.374;2023-05-14T09:19:04;21.90;56.50
2130;DHT22;1071;52.544;13.374;2023-05-14T09:21:32;22.00;56.60
2130;DHT22;1071;52.544;13.374;2023-05-14T09:23:59;22.00;56.20
2130;DHT22;1071;52.544;13.374;2023-05-14T09:26:30;22.00;55.80
2130;DHT22;1071;52.544;13.374;2023-05-14T09:29:00;22.00;55.80
2130;DHT22;1071;52.544;13.374;2023-05-14T09:31:29;22.10;55.70
2130;DHT22;1071;52.544;13.374;2023-05-14T09:34:01;22.10;54.90
2130;DHT22;1071;52.544;13.374;2023-05-14T09:36:33;22.10;54.70
2130;DHT22;1071;52.544;13.374;2023-05-14T09:39:03;22.20;54.40
2130;DHT22;1071;52.544;13.374;2023-05-14T09:41:30;22.20;53.90
2130;DHT22;1071;52.544;13.374;2023-05-14T09:43:57;22.20;54.20
2130;DHT22;1071;52.544;13.374;2023-05-14T09:46:26;22.30;54.00
2130;DHT22;1071;52.544;13.374;2023-05-14T09:48:56;22.30;53.60
2130;DHT22;1071;52.544;13.374;2023-05-14T09:51:24;22.30;53.80
2130;DHT22;1071;52.544;13.374;2023-05-14T09:53:52;22.30;53.90
2130;DHT22;1071;52.544;13.374;2023-05-14T09:56:20;22.30;53.80
2130;DHT22;1071;52.544;13.374;2023-05-14T09:58:48;22.40;54.60
2130;DHT22;1071;52.544;13.374;2023-05-14T10:01:17;22.30;53.80
2130;DHT22;1071;52.544;13.374;2023-05-14T10:03:44;22.30;53.70
2130;DHT22;1071;52.544;13.374;2023-05-14T10:06:12;22.20;53.10
2130;DHT22;1071;52.544;13.374;2023-05-14T10:08:51;22.20;53.40
2130;DHT22;1071;52.544;13.374;2023-05-14T10:11:23;22.20;53.50
2130;DHT22;1071;52.544;13.374;2023-05-14T10:13:56;22.30;54.00
2130;DHT22;1071;52.544;13.374;2023-05-14T10:16:27;22.30;53.60
2130;DHT22;1071;52.544;13.374;2023-05-14T10:19:00;22.20;53.90
2130;DHT22;1071;52.544;13.374;2023-05-14T10:21:31;22.20;54.00
2130;DHT22;1071;52.544;13.374;2023-05-14T10:24:02;22.20;54.30
2130;DHT22;1071;52.544;13.374;2023-05-14T10:26:30;22.20;54.80
2130;DHT22;1071;52.544;13.374;2023-05-14T10:29:04;22.20;55.00
2130;DHT22;1071;52.544;13.374;2023-05-14T10:31:47;22.20;55.00
2130;DHT22;1071;52.544;13.374;2023-05-14T10:34:30;22.20;54.90
2130;DHT22;1071;52.544;13.374;2023-05-14T10:36:59;22.20;54.60
2130;DHT22;1071;52.544;13.374;2023-05-14T10:39:41;22.20;54.50
2130;DHT22;1071;52.544;13.374;2023-05-14T10:42:10;22.10;54.40
2130;DHT22;1071;52.544;13.374;2023-05-14T10:44:44;22.10;54.60
2130;DHT22;1071;52.544;13.374;2023-05-14T10:47:13;22.10;54.70
2130;DHT22;1071;52.544;13.374;2023-05-14T10:49:41;22.00;55.00
2130;DHT22;1071;52.544;13.374;2023-05-14T10:52:09;22.00;54.40
2130;DHT22;1071;52.544;13.374;2023-05-14T10:54:37;21.90;54.10
2130;DHT22;1071;52.544;13.374;2023-05-14T10:57:10;21.90;54.20
2130;DHT22;1071;52.544;13.374;2023-05-14T10:59:41;21.90;53.90
2130;DHT22;1071;52.544;13.374;2023-05-14T11:02:20;21.80;54.10
2130;DHT22;1071;52.544;13.374;2023-05-14T11:04:58;21.80;53.90
2130;DHT22;1071;52.544;13.374;2023-05-14T11:07:29;21.80;53.50
2130;DHT22;1071;52.544;13.374;2023-05-14T11:10:00;21.70;53.50
2130;DHT22;1071;52.544;13.374;2023-05-14T11:12:29;21.60;53.90
2130;DHT22;1071;52.544;13.374;2023-05-14T11:14:57;21.60;53.90
2130;DHT22;1071;52.544;13.374;2023-05-14T11:17:25;21.50;54.20
2130;DHT22;1071;52.544;13.374;2023-05-14T11:19:53;21.50;54.10
2130;DHT22;1071;52.544;13.374;2023-05-14T11:22:20;21.50;54.40
2130;DHT22;1071;52.544;13.374;2023-05-14T11:24:48;21.40;54.00
2130;DHT22;1071;52.544;13.374;2023-05-14T11:27:16;21.40;54.10
2130;DHT22;1071;52.544;13.374;2023-05-14T11:29:45;21.40;54.10
2130;DHT22;1071;52.544;13.374;2023-05-14T11:32:14;21.30;54.20
2130;DHT22;1071;52.544;13.374;2023-05-14T11:34:43;21.30;54.40
2130;DHT22;1071;52.544;13.374;2023-05-14T11:37:11;21.30;54.40
2130;DHT22;1071;52.544;13.374;2023-05-14T11:39:46;21.30;54.70
2130;DHT22;1071;52.544;13.374;2023-05-14T11:42:13;21.30;54.60
2130;DHT22;1071;52.544;13.374;2023-05-14T11:44:46;21.40;54.80
2130;DHT22;1071;52.544;13.374;2023-05-14T11:47:15;21.40;54.80
2130;DHT22;1071;52.544;13.374;2023-05-14T11:49:42;21.50;55.00
2130;DHT22;1071;52.544;13.374;2023-05-14T11:52:13;21.50;55.00
2130;DHT22;1071;52.544;13.374;2023-05-14T11:54:42;21.50;55.00
2130;DHT22;1071;52.544;13.374;2023-05-14T11:57:11;21.50;55.20
2130;DHT22;1071;52.544;13.374;2023-05-14T11:59:38;21.50;55.10
2130;DHT22;1071;52.544;13.374;2023-05-14T12:02:11;21.50;55.00
2130;DHT22;1071;52.544;13.374;2023-05-14T12:04:39;21.50;55.30
2130;DHT22;1071;52.544;13.374;2023-05-14T12:07:08;21.50;55.30
2130;DHT22;1071;52.544;13.374;2023-05-14T12:09:38;21.60;55.40
2130;DHT22;1071;52.544;13.374;2023-05-14T12:12:08;21.60;55.50
2130;DHT22;1071;52.544;13.374;2023-05-14T12:14:39;21.60;55.10
2130;DHT22;1071;52.544;13.374;2023-05-14T12:17:16;21.60;55.30
2130;DHT22;1071;52.544;13.374;2023-05-14T12:19:46;21.60;55.30
2130;DHT22;1071;52.544;13.374;2023-05-14T12:22:16;21.60;55.00
2130;DHT22;1071;52.544;13.374;2023-05-14T12:24:51;21.60;55.30
2130;DHT22;1071;52.544;13.374;2023-05-14T12:27:21;21.60;55.60
2130;DHT22;1071;52.544;13.374;2023-05-14T12:29:48;21.60;55.70
2130;DHT22;1071;52.544;13.374;2023-05-14T12:32:19;21.60;55.70
2130;DHT22;1071;52.544;13.374;2023-05-14T12:34:46;21.70;55.80
2130;DHT22;1071;52.544;13.374;2023-05-14T12:37:14;21.70;55.90
2130;DHT22;1071;52.544;13.374;2023-05-14T12:39:43;21.80;56.00
2130;DHT22;1071;52.544;13.374;2023-05-14T12:42:10;21.90;56.20
2130;DHT22;1071;52.544;13.374;2023-05-14T12:44:37;21.90;56.10
2130;DHT22;1071;52.544;13.374;2023-05-14T12:47:05;22.00;56.00
2130;DHT22;1071;52.544;13.374;2023-05-14T12:49:33;22.10;55.60
2130;DHT22;1071;52.544;13.374;2023-05-14T12:52:12;22.10;55.40
2130;DHT22;1071;52.544;13.374;2023-05-14T12:54:44;22.20;55.20
2130;DHT22;1071;52.544;13.374;2023-05-14T12:57:11;22.20;54.80
2130;DHT22;1071;52.544;13.374;2023-05-14T12:59:38;22.20;54.20
2130;DHT22;1071;52.544;13.374;2023-05-14T13:02:06;22.20;53.90
2130;DHT22;1071;52.544;13.374;2023-05-14T13:04:34;22.30;53.70
2130;DHT22;1071;52.544;13.374;2023-05-14T13:07:02;22.20;52.60
2130;DHT22;1071;52.544;13.374;2023-05-14T13:09:29;22.20;52.80
2130;DHT22;1071;52.544;13.374;2023-05-14T13:11:56;22.30;52.90
2130;DHT22;1071;52.544;13.374;2023-05-14T13:14:23;22.30;52.70
2130;DHT22;1071;52.544;13.374;2023-05-14T13:16:54;22.30;52.70
2130;DHT22;1071;52.544;13.374;2023-05-14T13:19:21;22.30;52.40
2130;DHT22;1071;52.544;13.374;2023-05-14T13:21:50;22.20;52.60
2130;DHT22;1071;52.544;13.374;2023-05-14T13:24:20;22.20;51.70
2130;DHT22;1071;52.544;13.374;2023-05-14T13:26:47;22.10;51.80
2130;DHT22;1071;52.544;13.374;2023-05-14T13:29:14;22.20;51.90
2130;DHT22;1071;52.544;13.374;2023-05-14T13:31:41;22.10;51.80
2130;DHT22;1071;52.544;13.374;2023-05-14T13:34:08;22.10;52.30
2130;DHT22;1071;52.544;13.374;2023-05-14T13:36:35;22.10;51.90
2130;DHT22;1071;52.544;13.374;2023-05-14T13:39:05;22.00;52.00
2130;DHT22;1071;52.544;13.374;2023-05-14T13:41:32;22.00;52.10
2130;DHT22;1071;52.544;13.374;2023-05-14T13:44:00;22.00;52.10
2130;DHT22;1071;52.544;13.374;2023-05-14T13:46:27;22.00;52.10
2130;DHT22;1071;52.544;13.374;2023-05-14T13:48:54;22.00;51.90
2130;DHT22;1071;52.544;13.374;2023-05-14T13:51:22;21.90;52.20
2130;DHT22;1071;52.544;13.374;2023-05-14T13:53:51;22.00;52.40
2130;DHT22;1071;52.544;13.374;2023-05-14T13:56:20;22.00;52.30
2130;DHT22;1071;52.544;13.374;2023-05-14T13:58:47;22.00;51.60
2130;DHT22;1071;52.544;13.374;2023-05-14T14:01:14;22.00;51.50
2130;DHT22;1071;52.544;13.374;2023-05-14T14:03:41;22.00;51.50
2130;DHT22;1071;52.544;13.374;2023-05-14T14:06:08;22.00;51.20
2130;DHT22;1071;52.544;13.374;2023-05-14T14:08:35;22.00;51.40
2130;DHT22;1071;52.544;13.374;2023-05-14T14:11:02;22.00;51.70
2130;DHT22;1071;52.544;13.374;2023-05-14T14:13:34;21.90;51.90
2130;DHT22;1071;52.544;13.374;2023-05-14T14:16:01;22.00;52.00
2130;DHT22;1071;52.544;13.374;2023-05-14T14:18:33;22.00;52.10
2130;DHT22;1071;52.544;13.374;2023-05-14T14:21:00;22.10;52.20
2130;DHT22;1071;52.544;13.374;2023-05-14T14:23:27;22.10;52.30
2130;DHT22;1071;52.544;13.374;2023-05-14T14:25:54;22.10;52.40
2130;DHT22;1071;52.544;13.374;2023-05-14T14:28:22;22.20;52.40
2130;DHT22;1071;52.544;13.374;2023-05-14T14:30:50;22.20;52.20
2130;DHT22;1071;52.544;13.374;2023-05-14T14:33:17;22.20;52.20
2130;DHT22;1071;52.544;13.374;2023-05-14T14:35:45;22.20;52.30
2130;DHT22;1071;52.544;13.374;2023-05-14T14:38:12;22.20;52.40
2130;DHT22;1071;52.544;13.374;2023-05-14T14:40:39;22.20;51.40
2130;DHT22;1071;52.544;13.374;2023-05-14T14:43:06;22.20;51.60
2130;DHT22;1071;52.544;13.374;2023-05-14T14:45:33;22.00;51.20
2130;DHT22;1071;52.544;13.374;2023-05-14T14:48:26;22.00;51.00
2130;DHT22;1071;52.544;13.374;2023-05-14T14:50:56;22.00;51.40
2130;DHT22;1071;52.544;13.374;2023-05-14T14:53:23;22.00;51.60
2130;DHT22;1071;52.544;13.374;2023-05-14T14:55:51;22.00;51.20
2130;DHT22;1071;52.544;13.374;2023-05-14T14:58:19;22.00;51.20
2130;DHT22;1071;52.544;13.374;2023-05-14T15:00:53;21.90;50.70
2130;DHT22;1071;52.544;13.374;2023-05-14T15:03:24;21.90;50.40
2130;DHT22;1071;52.544;13.374;2023-05-14T15:05:52;21.90;50.40
2130;DHT22;1071;52.544;13.374;2023-05-14T15:08:22;21.80;50.20
2130;DHT22;1071;52.544;13.374;2023-05-14T15:10:50;21.80;50.50
2130;DHT22;1071;52.544;13.374;2023-05-14T15:13:20;21.80;50.60
2130;DHT22;1071;52.544;13.374;2023-05-14T15:15:48;21.80;50.60
2130;DHT22;1071;52.544;13.374;2023-05-14T15:18:16;21.80;50.70
2130;DHT22;1071;52.544;13.374;2023-05-14T15:20:43;21.80;51.00
2130;DHT22;1071;52.544;13.374;2023-05-14T15:23:11;21.80;51.10
2130;DHT22;1071;52.544;13.374;2023-05-14T15:25:39;21.90;51.50
2130;DHT22;1071;52.544;13.374;2023-05-14T15:28:06;21.80;51.60
2130;DHT22;1071;52.544;13.374;2023-05-14T15:30:33;21.80;51.70
2130;DHT22;1071;52.544;13.374;2023-05-14T15:33:02;21.80;52.00
2130;DHT22;1071;52.544;13.374;2023-05-14T15:35:29;21.70;52.20
2130;DHT22;1071;52.544;13.374;2023-05-14T15:37:56;21.70;52.00
2130;DHT22;1071;52.544;13.374;2023-05-14T15:40:25;21.70;51.90
2130;DHT22;1071;52.544;13.374;2023-05-14T15:42:54;21.70;52.00
2130;DHT22;1071;52.544;13.374;2023-05-14T15:45:23;21.60;51.60
2130;DHT22;1071;52.544;13.374;2023-05-14T15:47:50;21.50;51.50
2130;DHT22;1071;52.544;13.374;2023-05-14T15:50:17;21.50;51.70
2130;DHT22;1071;52.544;13.374;2023-05-14T15:52:45;21.50;51.80